Time;durP1;ratioP1;P1;durP2;ratioP2;P2;SDS_P1;SDS_P2;PMS_P1;PMS_P2;Temp;Humidity;BMP_temperature;BMP_pressure;BME280_temperature;BME280_humidity;BME280_pressure;Samples;Min_cycle;Max_cycle;Signal;HPM_P1;HPM_P2
2021/10/04 00:00:30;;;;;;;11.12;6.85;;;;;;;10.59;67.19;101496.78;1729778;82;21403;-62
2021/10/04 00:02:57;;;;;;;10.30;7.05;;;;;;;10.56;67.40;101498.50;1722933;82;21090;-62
2021/10/04 00:05:23;;;;;;;14.35;7.87;;;;;;;10.53;67.55;101494.87;1728189;81;20971;-62
2021/10/04 00:07:50;;;;;;;15.83;7.87;;;;;;;10.50;67.56;101492.05;1724158;82;20956;-63
2021/10/04 00:10:17;;;;;;;12.10;8.03;;;;;;;10.50;67.57;101492.56;1722384;82;21130;-62
2021/10/04 00:12:45;;;;;;;12.25;7.92;;;;;;;10.45;67.59;101489.12;1726166;82;20948;-62
2021/10/04 00:15:15;;;;;;;16.35;7.42;;;;;;;10.41;67.67;101497.22;1685583;84;21119;-62
2021/10/04 00:17:43;;;;;;;13.40;7.28;;;;;;;10.38;67.69;101494.92;1721372;82;21042;-62
2021/10/04 00:20:11;;;;;;;13.35;7.90;;;;;;;10.37;67.73;101487.06;1721443;82;21573;-62
2021/10/04 00:22:38;;;;;;;12.75;8.60;;;;;;;10.36;67.69;101489.41;1689982;83;21116;-62
2021/10/04 00:25:06;;;;;;;13.25;8.25;;;;;;;10.35;67.63;101491.28;1723001;82;21015;-61
2021/10/04 00:27:34;;;;;;;13.58;7.42;;;;;;;10.34;67.58;101489.61;1722981;82;21043;-63
2021/10/04 00:30:05;;;;;;;13.03;7.60;;;;;;;10.33;67.54;101490.59;1720234;82;21012;-62
2021/10/04 00:32:29;;;;;;;16.48;7.55;;;;;;;10.32;67.59;101490.25;1726083;82;20908;-62
2021/10/04 00:34:55;;;;;;;13.72;7.90;;;;;;;10.30;67.59;101493.65;1723003;82;21148;-61
2021/10/04 00:37:22;;;;;;;13.13;7.70;;;;;;;10.29;67.59;101490.64;1689257;84;21011;-62
2021/10/04 00:39:49;;;;;;;14.47;7.72;;;;;;;10.28;67.59;101491.16;1702928;84;21560;-61
2021/10/04 00:42:15;;;;;;;11.80;7.60;;;;;;;10.26;67.55;101487.00;1722101;81;21026;-61
2021/10/04 00:44:42;;;;;;;11.93;7.30;;;;;;;10.25;67.60;101488.03;1719621;82;35840;-61
2021/10/04 00:47:09;;;;;;;18.95;9.58;;;;;;;10.24;67.54;101483.17;1721483;82;21311;-63
2021/10/04 00:49:35;;;;;;;14.03;7.97;;;;;;;10.23;67.49;101484.70;1722149;82;21731;-61
2021/10/04 00:52:02;;;;;;;14.60;8.35;;;;;;;10.20;67.55;101479.72;1720385;82;21114;-62
2021/10/04 00:54:28;;;;;;;15.98;7.90;;;;;;;10.18;67.62;101480.73;1721594;82;21308;-61
2021/10/04 00:56:55;;;;;;;22.98;10.25;;;;;;;10.18;67.64;101481.25;1723448;82;21530;-61
2021/10/04 00:59:21;;;;;;;17.85;9.73;;;;;;;10.16;67.81;101477.42;1720259;82;21132;-62
2021/10/04 01:01:47;;;;;;;11.40;7.65;;;;;;;10.16;67.77;101472.58;1720922;82;20888;-61
2021/10/04 01:04:14;;;;;;;14.20;7.70;;;;;;;10.17;67.80;101481.77;1722890;82;21024;-65
2021/10/04 01:06:41;;;;;;;17.65;8.50;;;;;;;10.16;67.80;101478.76;1718870;82;20913;-62
2021/10/04 01:09:07;;;;;;;13.80;8.13;;;;;;;10.15;67.74;101478.42;1722256;82;20868;-62
2021/10/04 01:11:35;;;;;;;14.07;8.40;;;;;;;10.14;67.79;101480.80;1723184;82;21170;-62
2021/10/04 01:14:03;;;;;;;16.90;8.85;;;;;;;10.12;67.77;101474.78;1725481;82;20960;-62
2021/10/04 01:16:30;;;;;;;12.55;7.55;;;;;;;10.12;67.73;101474.78;1721097;82;21563;-62
2021/10/04 01:18:56;;;;;;;17.95;8.60;;;;;;;10.10;67.77;101478.17;1724674;82;21003;-62
2021/10/04 01:21:23;;;;;;;15.55;7.65;;;;;;;10.09;67.83;101473.83;1725332;82;20979;-62
2021/10/04 01:23:49;;;;;;;16.15;8.50;;;;;;;10.08;67.89;101476.17;1723003;82;21130;-62
2021/10/04 01:26:16;;;;;;;16.82;8.90;;;;;;;10.11;67.88;101469.62;1722657;82;21526;-62
2021/10/04 01:28:43;;;;;;;12.82;8.18;;;;;;;10.15;67.87;101476.27;1722605;82;21490;-61
2021/10/04 01:31:09;;;;;;;15.32;8.05;;;;;;;10.15;67.71;101477.09;1720977;82;20920;-60
2021/10/04 01:33:36;;;;;;;11.28;7.40;;;;;;;10.13;67.70;101483.16;1724631;82;20924;-61
2021/10/04 01:36:02;;;;;;;19.57;8.60;;;;;;;10.12;67.64;101476.12;1724638;82;21807;-61
2021/10/04 01:38:29;;;;;;;19.10;8.95;;;;;;;10.11;67.65;101482.49;1718889;82;21110;-61
2021/10/04 01:40:55;;;;;;;15.95;9.03;;;;;;;10.10;67.73;101482.69;1721082;82;21522;-61
2021/10/04 01:43:22;;;;;;;16.05;8.80;;;;;;;10.08;67.79;101486.07;1720817;82;20956;-61
2021/10/04 01:45:48;;;;;;;20.08;8.70;;;;;;;10.07;67.83;101487.94;1724232;82;20932;-61
2021/10/04 01:48:15;;;;;;;15.75;8.50;;;;;;;10.07;67.80;101483.91;1724625;82;21310;-62
2021/10/04 01:50:41;;;;;;;14.75;8.50;;;;;;;10.05;67.75;101484.59;1726574;82;21741;-61
2021/10/04 01:53:08;;;;;;;11.90;7.95;;;;;;;10.01;67.84;101480.62;1721305;82;20941;-62
2021/10/04 01:55:35;;;;;;;13.53;8.45;;;;;;;9.97;67.95;101487.39;1684637;84;21023;-62
2021/10/04 01:58:02;;;;;;;12.35;7.60;;;;;;;9.95;67.93;101486.73;1672243;85;21063;-63
2021/10/04 02:00:28;;;;;;;15.10;8.30;;;;;;;9.92;68.15;101479.92;1672643;85;21811;-61
2021/10/04 02:02:55;;;;;;;13.55;8.45;;;;;;;9.90;68.40;101476.58;1673900;85;20963;-62
2021/10/04 02:05:22;;;;;;;11.80;7.92;;;;;;;9.89;68.39;101480.78;1673448;85;20987;-62
2021/10/04 02:07:50;;;;;;;13.28;8.60;;;;;;;9.89;68.50;101483.46;1677741;85;21028;-62
2021/10/04 02:10:21;;;;;;;17.15;8.80;;;;;;;9.86;68.52;101479.30;1679539;85;20955;-62
2021/10/04 02:12:47;;;;;;;13.22;8.50;;;;;;;9.81;68.58;101483.88;1663657;85;21133;-61
2021/10/04 02:15:15;;;;;;;18.23;9.75;;;;;;;9.76;68.79;101485.45;1678611;85;21683;-61
2021/10/04 02:17:41;;;;;;;17.57;10.20;;;;;;;9.73;68.98;101485.82;1681283;85;21627;-61
2021/10/04 02:20:12;;;;;;;16.15;8.48;;;;;;;9.72;69.11;101491.70;1673602;85;20991;-62
2021/10/04 02:22:39;;;;;;;12.00;8.45;;;;;;;9.72;69.06;101494.89;1679705;85;21739;-61
2021/10/04 02:25:07;;;;;;;15.93;10.25;;;;;;;9.73;69.04;101489.84;1674377;85;21181;-61
2021/10/04 02:27:34;;;;;;;37.78;20.40;;;;;;;9.74;68.96;101496.34;1670455;85;20956;-61
2021/10/04 02:30:01;;;;;;;34.48;16.35;;;;;;;9.73;68.95;101496.53;1683028;84;21042;-60
2021/10/04 02:32:27;;;;;;;28.45;14.25;;;;;;;9.71;69.01;101495.38;1673012;84;20902;-61
2021/10/04 02:34:54;;;;;;;28.40;14.18;;;;;;;9.67;69.04;101499.95;1675183;85;21518;-60
2021/10/04 02:37:20;;;;;;;21.25;10.35;;;;;;;9.63;69.06;101500.33;1675313;84;21214;-61
2021/10/04 02:39:46;;;;;;;28.17;14.63;;;;;;;9.63;69.11;101500.84;1672366;84;20920;-60
2021/10/04 02:42:13;;;;;;;15.98;9.10;;;;;;;9.60;69.09;101500.70;1681397;85;21019;-62
2021/10/04 02:44:39;;;;;;;16.93;10.28;;;;;;;9.59;69.06;101506.23;1673415;85;21521;-62
2021/10/04 02:47:06;;;;;;;15.23;9.18;;;;;;;9.58;69.06;101510.73;1681302;85;21055;-61
2021/10/04 02:49:32;;;;;;;22.80;10.58;;;;;;;9.58;69.08;101512.59;1679331;85;21162;-61
2021/10/04 02:51:59;;;;;;;18.10;9.88;;;;;;;9.57;69.08;101509.59;1676697;85;21123;-61
2021/10/04 02:54:25;;;;;;;19.12;10.70;;;;;;;9.58;69.02;101506.72;1676078;85;21616;-62
2021/10/04 02:56:52;;;;;;;15.05;10.38;;;;;;;9.57;68.92;101505.57;1666378;85;21098;-62
2021/10/04 02:59:18;;;;;;;29.32;15.32;;;;;;;9.58;68.86;101512.59;1668118;85;20987;-60
2021/10/04 03:01:45;;;;;;;19.40;11.38;;;;;;;9.59;68.79;101515.61;1667406;85;21801;-61
2021/10/04 03:04:11;;;;;;;19.45;10.20;;;;;;;9.59;68.75;101516.95;1660420;85;20906;-61
2021/10/04 03:06:38;;;;;;;15.13;9.68;;;;;;;9.59;68.71;101524.98;1665118;85;21052;-62
2021/10/04 03:09:04;;;;;;;20.30;11.85;;;;;;;9.59;68.72;101523.12;1663186;85;21019;-62
2021/10/04 03:11:30;;;;;;;26.85;14.43;;;;;;;9.60;68.74;101527.98;1669723;85;21568;-61
2021/10/04 03:13:57;;;;;;;30.75;15.60;;;;;;;9.59;68.72;101533.83;1657653;85;21131;-62
2021/10/04 03:16:24;;;;;;;21.48;12.05;;;;;;;9.58;68.75;101527.32;1665619;85;20992;-61
2021/10/04 03:18:50;;;;;;;20.57;12.70;;;;;;;9.57;68.76;101526.98;1672091;85;20992;-61
2021/10/04 03:21:17;;;;;;;18.32;9.90;;;;;;;9.56;68.69;101527.50;1668954;85;21526;-62
2021/10/04 03:23:43;;;;;;;14.70;10.20;;;;;;;9.60;68.68;101527.98;1671154;85;20962;-62
2021/10/04 03:26:10;;;;;;;18.82;10.23;;;;;;;9.60;68.64;101532.83;1668786;85;21181;-61
2021/10/04 03:28:36;;;;;;;15.55;10.65;;;;;;;9.59;68.60;101534.34;1670090;85;21004;-62
2021/10/04 03:31:03;;;;;;;21.37;12.73;;;;;;;9.58;68.57;101534.02;1670974;85;21024;-63
2021/10/04 03:33:30;;;;;;;21.87;12.78;;;;;;;9.58;68.32;101538.85;1666284;85;21559;-62
2021/10/04 03:35:56;;;;;;;15.83;10.48;;;;;;;9.61;68.37;101537.66;1657754;85;20905;-62
2021/10/04 03:38:23;;;;;;;20.20;10.30;;;;;;;9.59;68.29;101539.19;1662400;85;21077;-62
2021/10/04 03:40:49;;;;;;;16.87;11.63;;;;;;;9.58;68.30;101546.06;1669558;85;20987;-62
2021/10/04 03:43:16;;;;;;;17.70;10.80;;;;;;;9.56;68.25;101546.77;1670939;85;21573;-64
2021/10/04 03:45:42;;;;;;;19.30;12.10;;;;;;;9.54;68.14;101548.77;1665784;85;21056;-61
2021/10/04 03:52:14;;;;;;;22.98;12.15;;;;;;;9.45;68.35;101554.71;1691545;82;21023;-58
2021/10/04 03:57:59;;;;;;;;;;;;;;;9.40;68.63;101547.75;1719925;82;20984;-58
2021/10/04 04:00:26;;;;;;;21.30;13.78;;;;;;;9.32;68.71;101554.02;1722675;82;20123;-60
2021/10/04 04:02:53;;;;;;;19.62;12.00;;;;;;;9.25;68.75;101559.76;1723799;82;21450;-59
2021/10/04 04:05:19;;;;;;;18.40;11.43;;;;;;;9.20;68.77;101557.62;1716832;82;21142;-59
2021/10/04 04:07:46;;;;;;;17.65;11.30;;;;;;;9.19;68.73;101559.97;1714186;82;21574;-58
2021/10/04 04:10:13;;;;;;;17.80;10.23;;;;;;;9.27;68.69;101569.76;1721392;82;20988;-60
2021/10/04 04:12:39;;;;;;;19.12;11.08;;;;;;;9.38;68.36;101568.00;1716089;82;21094;-58
2021/10/04 04:15:07;;;;;;;21.65;13.98;;;;;;;9.41;68.00;101567.64;1713207;82;21031;-58
2021/10/04 04:17:34;;;;;;;22.50;12.53;;;;;;;9.40;67.66;101573.99;1716179;82;21779;-60
2021/10/04 04:20:00;;;;;;;21.60;11.63;;;;;;;9.37;67.45;101569.00;1712317;82;20961;-59
2021/10/04 04:22:27;;;;;;;21.50;12.90;;;;;;;9.34;67.34;101572.56;1720616;82;20964;-59
2021/10/04 04:24:55;;;;;;;19.17;11.15;;;;;;;9.32;67.34;101571.89;1709311;82;20992;-59
2021/10/04 04:27:23;;;;;;;19.80;11.43;;;;;;;9.30;67.30;101573.41;1707030;82;21055;-61
2021/10/04 04:29:50;;;;;;;17.65;12.07;;;;;;;9.32;67.29;101579.44;1720547;82;21137;-60
2021/10/04 04:32:19;;;;;;;26.12;12.15;;;;;;;9.62;67.15;101576.81;1706849;82;21474;-58
2021/10/04 04:34:45;;;;;;;18.27;10.72;;;;;;;10.24;65.60;101582.33;1706902;82;22166;-58
2021/10/04 04:37:12;;;;;;;19.48;10.35;;;;;;;10.68;64.18;101570.72;1718294;82;21560;-58
2021/10/04 04:39:39;;;;;;;22.15;10.70;;;;;;;10.92;62.77;101572.72;1712420;82;20987;-59
2021/10/04 04:42:07;;;;;;;19.67;10.80;;;;;;;11.00;61.67;101573.95;1720798;82;21167;-61
2021/10/04 04:44:34;;;;;;;15.83;8.80;;;;;;;11.02;61.16;101578.59;1718863;82;20912;-61
2021/10/04 04:47:01;;;;;;;15.93;9.13;;;;;;;11.04;60.62;101578.41;1715177;82;21612;-58
2021/10/04 04:49:28;;;;;;;13.40;9.30;;;;;;;11.09;60.45;101575.99;1721056;82;21424;-61
2021/10/04 04:51:56;;;;;;;15.10;10.00;;;;;;;11.40;59.80;101568.92;1720769;82;21062;-59
2021/10/04 04:54:23;;;;;;;16.07;9.55;;;;;;;11.97;58.48;101570.78;1734439;82;24881;-57
2021/10/04 04:56:50;;;;;;;15.08;8.58;;;;;;;12.69;57.44;101572.14;1728537;82;21573;-59
2021/10/04 05:03:10;;;;;;;23.42;11.60;;;;;;;14.24;53.80;101568.36;1735239;82;21026;-59
2021/10/04 05:09:07;;;;;;;17.07;10.28;;;;;;;15.76;48.31;101573.48;1729066;82;20963;-59
2021/10/04 05:15:30;;;;;;;22.90;10.05;;;;;;;16.65;46.74;101569.00;1731213;82;20935;-58
2021/10/04 05:21:27;;;;;;;21.07;10.08;;;;;;;17.57;43.75;101575.95;1732960;82;21003;-58
2021/10/04 05:23:53;;;;;;;21.20;10.68;;;;;;;17.52;43.61;101577.20;1733470;82;21195;-61
2021/10/04 05:26:20;;;;;;;19.87;11.60;;;;;;;17.10;43.97;101579.97;1727658;82;21091;-59
2021/10/04 05:28:46;;;;;;;15.72;9.78;;;;;;;16.33;45.50;101584.62;1711356;82;21019;-61
2021/10/04 05:31:12;;;;;;;16.25;9.73;;;;;;;15.68;46.88;101584.06;1725460;82;20984;-61
2021/10/04 05:33:39;;;;;;;18.95;10.23;;;;;;;14.92;48.48;101586.44;1729401;82;20944;-61
2021/10/04 05:36:06;;;;;;;21.73;10.78;;;;;;;14.17;50.30;101585.08;1736081;82;21126;-60
2021/10/04 05:38:33;;;;;;;20.40;11.40;;;;;;;13.61;52.05;101589.95;1730686;82;20979;-60
2021/10/04 05:40:59;;;;;;;20.05;12.50;;;;;;;13.10;53.49;101598.11;1729246;82;21568;-61
2021/10/04 05:43:26;;;;;;;25.02;11.78;;;;;;;12.74;54.67;101598.44;1732477;82;20948;-61
2021/10/04 05:45:53;;;;;;;24.43;11.95;;;;;;;12.42;55.60;101596.76;1728783;82;21489;-61
2021/10/04 05:48:19;;;;;;;28.40;11.45;;;;;;;12.17;56.16;101601.29;1731824;82;21087;-61
2021/10/04 05:50:45;;;;;;;28.65;13.62;;;;;;;11.99;57.11;101602.34;1729612;82;20916;-60
2021/10/04 05:53:12;;;;;;;29.12;15.55;;;;;;;11.87;57.45;101598.00;1720019;82;21038;-60
2021/10/04 05:55:40;;;;;;;34.73;17.50;;;;;;;11.78;57.91;101601.34;1733252;82;21028;-61
2021/10/04 05:58:06;;;;;;;35.05;15.95;;;;;;;11.67;58.16;101608.06;1730541;82;21006;-60
2021/10/04 06:00:33;;;;;;;22.25;13.72;;;;;;;11.62;58.65;101611.05;1735946;82;21917;-60
2021/10/04 06:02:59;;;;;;;28.87;17.45;;;;;;;11.59;58.74;101610.91;1732118;82;20981;-60
2021/10/04 06:05:26;;;;;;;38.70;20.02;;;;;;;11.52;58.88;101610.84;1730074;82;20912;-61
2021/10/04 06:07:52;;;;;;;48.00;24.05;;;;;;;11.44;59.14;101610.16;1734641;82;21540;-59
2021/10/04 06:10:20;;;;;;;29.35;15.72;;;;;;;11.35;59.53;101606.77;1729204;82;20947;-59
2021/10/04 06:12:47;;;;;;;24.52;14.55;;;;;;;11.30;59.85;101614.59;1731685;82;21143;-59
2021/10/04 06:15:14;;;;;;;31.40;13.88;;;;;;;11.23;60.15;101611.83;1728026;82;20983;-60
2021/10/04 06:17:40;;;;;;;31.42;13.85;;;;;;;11.17;60.52;101608.57;1729906;82;21012;-60
2021/10/04 06:20:08;;;;;;;30.88;14.10;;;;;;;11.14;60.73;101611.64;1735532;82;21426;-60
2021/10/04 06:22:35;;;;;;;22.42;11.18;;;;;;;11.12;60.96;101611.02;1729298;82;21482;-60
2021/10/04 06:25:02;;;;;;;17.62;11.83;;;;;;;11.11;60.90;101612.03;1734615;82;23362;-59
2021/10/04 06:27:29;;;;;;;24.07;13.28;;;;;;;11.07;60.83;101613.42;1734104;82;21016;-60
2021/10/04 06:29:55;;;;;;;22.45;12.23;;;;;;;11.08;61.08;101612.41;1731783;82;20993;-60
2021/10/04 06:32:22;;;;;;;21.68;12.43;;;;;;;11.14;60.97;101612.46;1733574;82;20939;-60
2021/10/04 06:34:48;;;;;;;19.87;11.55;;;;;;;11.20;60.86;101614.41;1729599;82;21011;-61
2021/10/04 06:37:15;;;;;;;19.45;11.10;;;;;;;11.27;60.44;101611.77;1733214;82;21931;-60
2021/10/04 06:39:42;;;;;;;20.92;11.83;;;;;;;11.30;60.33;101615.93;1729905;82;21003;-60
2021/10/04 06:42:09;;;;;;;21.65;12.15;;;;;;;11.52;60.33;101620.77;1735248;82;21004;-60
2021/10/04 06:44:37;;;;;;;21.48;12.93;;;;;;;11.95;59.70;101626.07;1729948;82;21540;-60
2021/10/04 06:47:03;;;;;;;22.30;11.93;;;;;;;12.48;58.30;101623.37;1735515;82;21059;-61
2021/10/04 06:49:34;;;;;;;20.02;12.20;;;;;;;13.21;57.45;101623.59;1732609;82;20968;-60
2021/10/04 06:52:02;;;;;;;19.85;10.90;;;;;;;14.26;55.50;101618.86;1729520;82;21067;-60
2021/10/04 06:54:30;;;;;;;42.50;13.32;;;;;;;15.46;51.77;101615.22;1729781;81;20947;-60
2021/10/04 06:56:56;;;;;;;20.02;10.63;;;;;;;16.18;48.91;101616.13;1729948;82;20936;-60
2021/10/04 06:59:23;;;;;;;29.80;12.03;;;;;;;16.34;47.84;101610.64;1734076;82;21478;-59
2021/10/04 07:01:49;;;;;;;25.12;11.95;;;;;;;16.15;47.16;101620.13;1731229;82;21227;-59
2021/10/04 07:04:16;;;;;;;19.17;10.23;;;;;;;15.65;48.27;101612.89;1731543;82;20967;-59
2021/10/04 07:06:42;;;;;;;24.00;11.10;;;;;;;15.37;49.03;101613.31;1730743;82;21011;-61
2021/10/04 07:09:09;;;;;;;18.20;9.95;;;;;;;15.27;49.32;101618.38;1729084;82;20860;-59
2021/10/04 07:11:36;;;;;;;16.15;10.40;;;;;;;15.24;49.65;101612.38;1734758;82;20994;-59
2021/10/04 07:14:03;;;;;;;17.57;10.82;;;;;;;15.25;49.67;101618.59;1732136;82;21143;-60
2021/10/04 07:16:30;;;;;;;21.35;10.80;;;;;;;15.21;49.87;101616.87;1729800;82;20972;-60
2021/10/04 07:18:57;;;;;;;15.43;10.13;;;;;;;15.09;49.38;101616.42;1732666;82;20948;-60
2021/10/04 07:21:23;;;;;;;16.67;9.98;;;;;;;14.88;49.56;101615.72;1731289;82;20916;-60
2021/10/04 07:23:50;;;;;;;24.45;10.28;;;;;;;14.81;50.42;101617.13;1731312;82;21545;-60
2021/10/04 07:26:17;;;;;;;15.93;9.98;;;;;;;14.91;50.03;101617.98;1734842;82;21135;-60
2021/10/04 07:28:43;;;;;;;19.75;10.98;;;;;;;14.97;49.46;101613.59;1729477;82;21466;-60
2021/10/04 07:31:10;;;;;;;19.60;10.78;;;;;;;14.85;49.55;101615.63;1733098;82;20947;-60
2021/10/04 07:33:36;;;;;;;20.82;9.80;;;;;;;14.74;49.48;101618.17;1729018;82;21008;-61
2021/10/04 07:36:06;;;;;;;19.65;10.65;;;;;;;14.53;49.69;101617.41;1734202;82;21055;-60
2021/10/04 07:38:32;;;;;;;16.85;9.55;;;;;;;14.32;49.95;101618.53;1732732;82;21175;-59
2021/10/04 07:40:59;;;;;;;26.27;10.80;;;;;;;14.16;50.14;101624.72;1729261;82;21058;-59
2021/10/04 07:43:25;;;;;;;20.72;9.25;;;;;;;14.15;50.05;101626.28;1734118;82;21546;-59
2021/10/04 07:45:52;;;;;;;19.10;8.98;;;;;;;14.22;50.36;101619.50;1730283;82;21087;-59
2021/10/04 07:48:19;;;;;;;17.55;9.23;;;;;;;14.44;50.28;101630.84;1732548;82;20936;-59
2021/10/04 07:50:47;;;;;;;12.88;7.45;;;;;;;14.59;49.91;101625.17;1729722;82;21414;-59
2021/10/04 07:53:13;;;;;;;16.60;8.23;;;;;;;14.71;48.83;101617.58;1734541;82;20964;-59
2021/10/04 07:55:40;;;;;;;14.40;8.20;;;;;;;14.90;47.01;101625.80;1736873;82;21033;-60
2021/10/04 07:58:07;;;;;;;10.98;8.13;;;;;;;14.96;46.28;101618.67;1726955;82;21772;-60
2021/10/04 08:00:33;;;;;;;15.23;9.00;;;;;;;14.93;46.66;101624.52;1735200;82;21080;-62
2021/10/04 08:03:00;;;;;;;16.80;9.00;;;;;;;14.94;47.20;101620.25;1726026;82;21189;-60
2021/10/04 08:05:27;;;;;;;11.53;8.33;;;;;;;14.97;48.11;101618.49;1725665;82;21485;-59
2021/10/04 08:07:53;;;;;;;16.15;7.62;;;;;;;15.08;46.35;101619.66;1724949;82;20960;-60
2021/10/04 08:10:20;;;;;;;14.18;8.18;;;;;;;15.18;44.66;101618.66;1726641;82;20865;-60
2021/10/04 08:12:46;;;;;;;17.12;7.97;;;;;;;15.20;44.84;101620.61;1726522;82;21107;-59
2021/10/04 08:15:13;;;;;;;21.10;9.08;;;;;;;15.23;45.24;101613.41;1741465;82;23400;-60
2021/10/04 08:17:40;;;;;;;15.72;8.43;;;;;;;15.27;45.61;101607.06;1741493;82;21557;-61
2021/10/04 08:20:10;;;;;;;14.45;8.23;;;;;;;15.33;44.52;101604.83;1741708;81;21056;-60
2021/10/04 08:22:38;;;;;;;15.10;8.88;;;;;;;15.27;44.36;101608.92;1734907;82;20975;-60
2021/10/04 08:25:06;;;;;;;19.82;9.08;;;;;;;15.13;44.62;101600.91;1731487;82;20993;-60
2021/10/04 08:27:32;;;;;;;13.15;8.83;;;;;;;15.05;45.47;101605.25;1739310;82;21109;-60
2021/10/04 08:29:59;;;;;;;11.12;8.50;;;;;;;15.05;45.11;101602.02;1738934;82;20877;-60
2021/10/04 08:32:25;;;;;;;14.95;8.83;;;;;;;15.16;45.44;101595.61;1730963;82;21055;-59
2021/10/04 08:34:52;;;;;;;13.75;8.65;;;;;;;15.30;45.74;101603.11;1732491;82;21051;-61
2021/10/04 08:37:19;;;;;;;19.75;9.05;;;;;;;15.37;45.29;101607.41;1737798;82;21383;-59
2021/10/04 08:39:46;;;;;;;18.02;9.68;;;;;;;15.33;45.71;101602.66;1737523;82;21172;-57
2021/10/04 08:42:13;;;;;;;18.25;9.20;;;;;;;15.29;45.02;101606.31;1737652;82;20987;-58
2021/10/04 08:44:41;;;;;;;12.63;6.83;;;;;;;15.25;44.05;101601.03;1740682;82;20884;-57
2021/10/04 08:47:08;;;;;;;18.65;8.43;;;;;;;15.18;42.97;101597.05;1721009;82;21755;-59
2021/10/04 08:49:34;;;;;;;13.03;8.10;;;;;;;15.11;43.46;101603.55;1703086;83;21016;-60
2021/10/04 08:52:01;;;;;;;19.20;8.63;;;;;;;15.07;43.60;101604.49;1712552;82;21976;-60
2021/10/04 08:54:29;;;;;;;14.20;8.28;;;;;;;15.07;43.97;101597.74;1725698;82;21503;-59
2021/10/04 08:56:56;;;;;;;11.15;7.15;;;;;;;15.08;43.48;101599.94;1725547;82;21027;-59
2021/10/04 08:59:23;;;;;;;11.18;7.60;;;;;;;14.96;42.09;101600.63;1719323;82;21084;-59
2021/10/04 09:01:49;;;;;;;10.30;6.03;;;;;;;14.89;42.01;101602.00;1725996;82;20948;-59
2021/10/04 09:04:20;;;;;;;12.07;6.55;;;;;;;14.84;40.68;101613.98;1688160;84;21806;-60
2021/10/04 09:06:47;;;;;;;13.28;5.87;;;;;;;14.79;41.97;101615.14;1732740;81;21537;-60
2021/10/04 09:09:15;;;;;;;15.08;6.08;;;;;;;14.85;41.46;101604.82;1729493;82;20979;-60
2021/10/04 09:11:48;;;;;;;;;;;;;;;14.92;41.49;101606.15;1724741;82;20960;-60
2021/10/04 09:14:30;;;;;;;11.93;5.08;;;;;;;14.94;39.92;101599.18;1729072;82;20114;-60
2021/10/04 09:17:07;;;;;;;15.18;5.20;;;;;;;14.83;39.84;101602.87;1731675;82;21186;-59
2021/10/04 09:19:39;;;;;;;10.35;4.72;;;;;;;14.77;40.31;101601.05;1730509;82;21144;-60
2021/10/04 09:22:16;;;;;;;8.98;5.00;;;;;;;14.76;39.72;101600.73;1732712;82;20979;-60
2021/10/04 09:24:51;;;;;;;5.95;4.55;;;;;;;14.77;40.10;101595.65;1732635;82;21095;-60
2021/10/04 09:27:34;;;;;;;7.67;4.10;;;;;;;14.83;39.83;101595.31;1722540;82;20995;-61
2021/10/04 09:30:15;;;;;;;10.08;4.12;;;;;;;14.90;39.39;101594.75;1732139;82;21122;-60
2021/10/04 09:32:45;;;;;;;10.78;4.35;;;;;;;14.94;39.17;101596.48;1730939;82;21006;-59
2021/10/04 09:35:30;;;;;;;9.85;3.85;;;;;;;14.97;38.91;101596.89;1735613;81;20944;-59
2021/10/04 09:38:08;;;;;;;8.10;3.50;;;;;;;14.97;38.64;101580.69;1733093;82;21086;-60
2021/10/04 09:40:38;;;;;;;11.05;3.42;;;;;;;14.94;38.14;101578.93;1729715;82;20924;-60
2021/10/04 09:43:24;;;;;;;7.25;3.67;;;;;;;14.83;38.22;101580.46;1732842;82;21074;-59
2021/10/04 09:46:07;;;;;;;4.72;3.55;;;;;;;14.80;37.67;101583.06;1693658;84;22171;-60
2021/10/04 09:48:35;;;;;;;8.75;3.65;;;;;;;14.80;38.14;101582.25;1728082;82;21051;-60
2021/10/04 09:51:17;;;;;;;8.75;3.83;;;;;;;14.81;37.49;101589.28;1734111;82;20982;-60
2021/10/04 09:54:11;;;;;;;8.78;4.53;;;;;;;14.80;37.69;101587.65;1724930;82;20932;-59
2021/10/04 09:56:38;;;;;;;7.53;4.40;;;;;;;14.80;37.70;101576.31;1718737;82;21800;-60
2021/10/04 09:59:06;;;;;;;7.83;4.00;;;;;;;14.83;38.18;101565.08;1714497;82;21071;-60
2021/10/04 10:01:35;;;;;;;8.48;4.53;;;;;;;14.86;37.99;101563.83;1719935;82;21027;-60
2021/10/04 10:16:36;;;;;;;7.10;3.60;;;;;;;15.78;36.00;101559.23;1825875;78;22329;-58
2021/10/04 10:19:12;;;;;;;8.08;3.77;;;;;;;15.64;36.23;101574.73;1800569;79;20974;-59
2021/10/04 10:21:39;;;;;;;8.68;3.95;;;;;;;15.58;36.13;101558.88;1802248;79;21803;-59
2021/10/04 10:24:10;;;;;;;6.95;3.40;;;;;;;15.51;35.69;101554.59;1797450;79;21018;-59
2021/10/04 10:26:58;;;;;;;7.33;3.60;;;;;;;15.34;35.92;101559.72;1800397;79;20955;-59
2021/10/04 10:29:26;;;;;;;7.08;3.37;;;;;;;15.21;36.21;101556.63;1801439;79;21089;-59
2021/10/04 10:31:56;;;;;;;;;;;;;;;15.12;36.44;101556.57;1799065;79;20999;-58
2021/10/04 10:34:39;;;;;;;6.00;3.67;;;;;;;15.08;36.21;101566.19;1763944;80;21137;-59
2021/10/04 10:37:16;;;;;;;5.90;3.85;;;;;;;14.98;35.98;101549.92;1730668;82;20959;-59
2021/10/04 10:39:53;;;;;;;6.25;3.22;;;;;;;14.79;36.39;101557.64;1768719;80;20999;-59
2021/10/04 10:42:38;;;;;;;6.00;3.75;;;;;;;14.68;36.33;101554.59;1730969;80;20967;-58
2021/10/04 10:45:09;;;;;;;9.03;2.80;;;;;;;14.70;36.36;101559.23;1734275;82;21488;-59
2021/10/04 10:47:43;;;;;;;12.03;3.58;;;;;;;14.74;35.21;101564.20;1764204;80;21454;-58
2021/10/04 10:50:14;;;;;;;7.87;4.35;;;;;;;14.69;35.00;101549.50;1763621;80;20884;-58
2021/10/04 10:52:45;;;;;;;9.80;4.45;;;;;;;14.61;35.30;101561.05;1734597;80;20903;-61
2021/10/04 10:55:24;;;;;;;9.15;4.15;;;;;;;14.52;36.12;101554.53;1734980;82;20998;-60
2021/10/04 10:58:01;;;;;;;6.37;3.65;;;;;;;14.52;36.41;101549.14;1764571;79;20951;-60
2021/10/04 11:00:41;;;;;;;5.83;3.15;;;;;;;14.58;36.11;101550.15;1730681;80;21159;-61
2021/10/04 11:03:21;;;;;;;9.35;3.10;;;;;;;14.60;35.96;101568.82;1733234;82;21058;-62
2021/10/04 11:06:02;;;;;;;7.15;3.40;;;;;;;14.57;35.68;101547.14;1710854;82;20892;-65
2021/10/04 11:08:47;;;;;;;6.30;2.50;;;;;;;14.56;35.82;101546.85;1733988;80;20954;-62
2021/10/04 11:11:18;;;;;;;5.83;2.95;;;;;;;14.63;35.09;101547.64;1735144;81;21015;-62
2021/10/04 11:14:01;;;;;;;4.83;3.47;;;;;;;14.67;35.29;101550.22;1708109;83;21943;-62
2021/10/04 11:16:31;;;;;;;3.70;2.60;;;;;;;14.68;34.76;101551.08;1729012;81;20959;-61
2021/10/04 11:18:58;;;;;;;5.03;3.10;;;;;;;14.63;34.90;101539.55;1723461;81;20987;-61
2021/10/04 11:21:27;;;;;;;8.23;3.70;;;;;;;14.63;35.41;101541.44;1694392;83;21563;-61
2021/10/04 11:24:03;;;;;;;4.53;2.92;;;;;;;14.68;35.74;101540.28;1721763;81;21018;-61
2021/10/04 11:26:36;;;;;;;7.65;3.52;;;;;;;14.74;35.03;101535.36;1725124;81;21067;-61
2021/10/04 11:29:05;;;;;;;15.88;3.02;;;;;;;14.76;35.23;101535.95;1720852;81;21588;-62
2021/10/04 11:31:34;;;;;;;4.62;3.17;;;;;;;14.76;35.59;101530.55;1722057;81;20991;-62
2021/10/04 11:34:07;;;;;;;6.58;2.90;;;;;;;14.80;35.29;101528.27;1723303;81;21007;-62
2021/10/04 11:36:41;;;;;;;8.30;3.92;;;;;;;14.83;34.96;101531.34;1693888;84;21019;-62
2021/10/04 11:39:27;;;;;;;3.87;3.00;;;;;;;14.80;35.52;101534.48;1718752;81;21162;-60
2021/10/04 11:42:03;;;;;;;4.12;3.05;;;;;;;14.82;34.95;101526.98;1694578;84;20971;-61
2021/10/04 11:44:28;;;;;;;3.67;3.15;;;;;;;14.85;35.29;101522.48;1722895;81;21042;-62
2021/10/04 11:46:59;;;;;;;3.77;2.98;;;;;;;14.88;34.92;101528.83;1725667;80;20995;-62
2021/10/04 11:49:29;;;;;;;3.85;2.98;;;;;;;14.88;34.71;101527.98;1695359;83;20955;-62
2021/10/04 11:51:58;;;;;;;10.35;3.30;;;;;;;14.85;34.95;101514.92;1719778;81;21821;-61
2021/10/04 11:54:44;;;;;;;7.85;3.62;;;;;;;14.85;35.21;101525.19;1721735;81;22048;-62
2021/10/04 11:57:15;;;;;;;5.97;3.80;;;;;;;14.85;35.44;101530.59;1723879;81;20968;-62
2021/10/04 11:59:57;;;;;;;9.85;3.72;;;;;;;14.82;35.39;101524.28;1695907;84;21564;-61